sensor_id;sensor_type;location;lat;lon;timestamp;temperature;humidity
8340;DHT22;4207;49.314;7.162;2023-03-01T00:01:47;-0.40;99.90
8340;DHT22;4207;49.314;7.162;2023-03-01T00:04:16;-0.40;99.90
8340;DHT22;4207;49.314;7.162;2023-03-01T00:06:44;-0.40;99.90
8340;DHT22;4207;49.314;7.162;2023-03-01T00:09:13;-0.40;99.90
8340;DHT22;4207;49.314;7.162;2023-03-01T00:11:42;-0.20;99.90
8340;DHT22;4207;49.314;7.162;2023-03-01T00:14:10;-0.40;99.90
8340;DHT22;4207;49.314;7.162;2023-03-01T00:16:41;-0.50;99.90
8340;DHT22;4207;49.314;7.162;2023-03-01T00:19:12;-0.20;99.90
8340;DHT22;4207;49.314;7.162;2023-03-01T00:21:41;-0.50;99.90
8340;DHT22;4207;49.314;7.162;2023-03-01T00:24:09;-0.50;99.90
8340;DHT22;4207;49.314;7.162;2023-03-01T00:26:37;-0.50;99.90
8340;DHT22;4207;49.314;7.162;2023-03-01T00:29:06;-0.50;99.90
8340;DHT22;4207;49.314;7.162;2023-03-01T00:31:34;-0.50;99.90
8340;DHT22;4207;49.314;7.162;2023-03-01T00:34:05;-0.60;99.90
8340;DHT22;4207;49.314;7.162;2023-03-01T00:36:35;-0.60;99.90
8340;DHT22;4207;49.314;7.162;2023-03-01T00:39:05;-0.50;99.90
8340;DHT22;4207;49.314;7.162;2023-03-01T00:41:33;-0.60;99.90
8340;DHT22;4207;49.314;7.162;2023-03-01T00:44:02;-0.60;99.90
8340;DHT22;4207;49.314;7.162;2023-03-01T00:46:30;-0.60;99.90
8340;DHT22;4207;49.314;7.162;2023-03-01T00:48:59;-0.60;99.90
8340;DHT22;4207;49.314;7.162;2023-03-01T00:51:30;-0.60;99.90
8340;DHT22;4207;49.314;7.162;2023-03-01T00:53:59;-0.60;99.90
8340;DHT22;4207;49.314;7.162;2023-03-01T00:56:28;-0.60;99.90
8340;DHT22;4207;49.314;7.162;2023-03-01T00:58:56;-0.30;99.90
8340;DHT22;4207;49.314;7.162;2023-03-01T01:01:26;-0.70;99.90
8340;DHT22;4207;49.314;7.162;2023-03-01T01:03:58;-0.70;99.90
8340;DHT22;4207;49.314;7.162;2023-03-01T01:06:30;-0.70;99.90
8340;DHT22;4207;49.314;7.162;2023-03-01T01:09:01;-0.80;99.90
8340;DHT22;4207;49.314;7.162;2023-03-01T01:11:30;-0.80;99.90
8340;DHT22;4207;49.314;7.162;2023-03-01T01:13:59;-0.80;99.90
8340;DHT22;4207;49.314;7.162;2023-03-01T01:16:29;-0.40;99.90
8340;DHT22;4207;49.314;7.162;2023-03-01T01:18:57;-0.80;99.90
8340;DHT22;4207;49.314;7.162;2023-03-01T01:21:27;-0.90;99.90
8340;DHT22;4207;49.314;7.162;2023-03-01T01:23:57;0.40;99.90
8340;DHT22;4207;49.314;7.162;2023-03-01T01:26:28;-0.90;99.90
8340;DHT22;4207;49.314;7.162;2023-03-01T01:28:57;-0.80;99.90
8340;DHT22;4207;49.314;7.162;2023-03-01T01:31:26;-0.90;99.90
8340;DHT22;4207;49.314;7.162;2023-03-01T01:33:57;-0.80;99.90
8340;DHT22;4207;49.314;7.162;2023-03-01T01:36:26;-0.90;99.90
8340;DHT22;4207;49.314;7.162;2023-03-01T01:38:55;-0.90;99.90
8340;DHT22;4207;49.314;7.162;2023-03-01T01:41:26;-1.00;99.90
8340;DHT22;4207;49.314;7.162;2023-03-01T01:44:15;-0.70;99.90
8340;DHT22;4207;49.314;7.162;2023-03-01T01:46:46;-1.10;99.90
8340;DHT22;4207;49.314;7.162;2023-03-01T01:49:24;-1.10;99.90
8340;DHT22;4207;49.314;7.162;2023-03-01T01:51:58;-0.30;99.90
8340;DHT22;4207;49.314;7.162;2023-03-01T01:54:30;-1.10;99.90
8340;DHT22;4207;49.314;7.162;2023-03-01T01:57:05;-1.10;99.90
8340;DHT22;4207;49.314;7.162;2023-03-01T01:59:35;-1.10;99.90
8340;DHT22;4207;49.314;7.162;2023-03-01T02:02:04;-1.00;99.90
8340;DHT22;4207;49.314;7.162;2023-03-01T02:04:33;-1.10;99.90
8340;DHT22;4207;49.314;7.162;2023-03-01T02:07:03;-0.50;99.90
8340;DHT22;4207;49.314;7.162;2023-03-01T02:09:34;-1.00;99.90
8340;DHT22;4207;49.314;7.162;2023-03-01T02:12:05;-1.00;99.90
8340;DHT22;4207;49.314;7.162;2023-03-01T02:14:34;-1.00;99.90
8340;DHT22;4207;49.314;7.162;2023-03-01T02:17:02;-1.00;99.90
8340;DHT22;4207;49.314;7.162;2023-03-01T02:19:40;-1.00;99.90
8340;DHT22;4207;49.314;7.162;2023-03-01T02:22:17;-1.00;99.90
8340;DHT22;4207;49.314;7.162;2023-03-01T02:24:57;-1.10;99.90
8340;DHT22;4207;49.314;7.162;2023-03-01T02:27:36;-1.10;99.90
8340;DHT22;4207;49.314;7.162;2023-03-01T02:30:08;-1.10;99.90
8340;DHT22;4207;49.314;7.162;2023-03-01T02:32:40;-1.10;99.90
8340;DHT22;4207;49.314;7.162;2023-03-01T02:35:09;-0.50;99.90
8340;DHT22;4207;49.314;7.162;2023-03-01T02:37:39;-1.10;99.90
8340;DHT22;4207;49.314;7.162;2023-03-01T02:40:10;-1.10;99.90
8340;DHT22;4207;49.314;7.162;2023-03-01T02:42:46;-1.30;99.90
8340;DHT22;4207;49.314;7.162;2023-03-01T02:45:17;-1.30;99.90
8340;DHT22;4207;49.314;7.162;2023-03-01T02:47:45;-1.40;99.90
8340;DHT22;4207;49.314;7.162;2023-03-01T02:50:22;-1.40;99.90
8340;DHT22;4207;49.314;7.162;2023-03-01T02:52:55;-1.40;99.90
8340;DHT22;4207;49.314;7.162;2023-03-01T02:55:26;-1.50;99.90
8340;DHT22;4207;49.314;7.162;2023-03-01T02:57:56;-1.50;99.90
8340;DHT22;4207;49.314;7.162;2023-03-01T03:00:29;-0.70;99.90
8340;DHT22;4207;49.314;7.162;2023-03-01T03:03:00;-1.60;99.90
8340;DHT22;4207;49.314;7.162;2023-03-01T03:05:31;-1.20;99.90
8340;DHT22;4207;49.314;7.162;2023-03-01T03:08:00;-0.70;99.90
8340;DHT22;4207;49.314;7.162;2023-03-01T03:10:35;-1.70;99.90
8340;DHT22;4207;49.314;7.162;2023-03-01T03:13:06;-1.60;99.90
8340;DHT22;4207;49.314;7.162;2023-03-01T03:15:36;-1.70;99.90
8340;DHT22;4207;49.314;7.162;2023-03-01T03:18:08;-1.60;99.90
8340;DHT22;4207;49.314;7.162;2023-03-01T03:20:37;-1.70;99.90
8340;DHT22;4207;49.314;7.162;2023-03-01T03:23:07;-1.70;99.90
8340;DHT22;4207;49.314;7.162;2023-03-01T03:25:36;-1.70;99.90
8340;DHT22;4207;49.314;7.162;2023-03-01T03:28:06;-1.70;99.90
8340;DHT22;4207;49.314;7.162;2023-03-01T03:30:40;-1.70;99.90
8340;DHT22;4207;49.314;7.162;2023-03-01T03:33:09;-1.70;99.90
8340;DHT22;4207;49.314;7.162;2023-03-01T03:35:42;-1.70;99.90
8340;DHT22;4207;49.314;7.162;2023-03-01T03:38:12;-1.70;99.90
8340;DHT22;4207;49.314;7.162;2023-03-01T03:40:45;-1.10;99.90
8340;DHT22;4207;49.314;7.162;2023-03-01T03:43:15;-1.80;99.90
8340;DHT22;4207;49.314;7.162;2023-03-01T03:45:46;-1.70;99.90
8340;DHT22;4207;49.314;7.162;2023-03-01T03:48:14;-1.70;99.90
8340;DHT22;4207;49.314;7.162;2023-03-01T03:50:47;-1.70;99.90
8340;DHT22;4207;49.314;7.162;2023-03-01T03:53:16;-1.70;99.90
8340;DHT22;4207;49.314;7.162;2023-03-01T03:55:44;-1.60;99.90
8340;DHT22;4207;49.314;7.162;2023-03-01T03:58:16;-1.70;99.90
8340;DHT22;4207;49.314;7.162;2023-03-01T04:00:50;-1.70;99.90
8340;DHT22;4207;49.314;7.162;2023-03-01T04:03:19;-1.80;99.90
8340;DHT22;4207;49.314;7.162;2023-03-01T04:05:49;-1.70;99.90
8340;DHT22;4207;49.314;7.162;2023-03-01T04:08:18;-1.80;99.90
8340;DHT22;4207;49.314;7.162;2023-03-01T04:10:49;-0.90;99.90
8340;DHT22;4207;49.314;7.162;2023-03-01T04:13:19;-1.80;99.90
8340;DHT22;4207;49.314;7.162;2023-03-01T04:15:49;-1.80;99.90
8340;DHT22;4207;49.314;7.162;2023-03-01T04:18:20;-1.70;99.90
8340;DHT22;4207;49.314;7.162;2023-03-01T04:20:48;-1.80;99.90
8340;DHT22;4207;49.314;7.162;2023-03-01T04:23:21;-1.70;99.90
8340;DHT22;4207;49.314;7.162;2023-03-01T04:25:51;-1.80;99.90
8340;DHT22;4207;49.314;7.162;2023-03-01T04:28:22;-1.80;99.90
8340;DHT22;4207;49.314;7.162;2023-03-01T04:30:54;-0.90;99.90
8340;DHT22;4207;49.314;7.162;2023-03-01T04:33:27;-1.90;99.90
8340;DHT22;4207;49.314;7.162;2023-03-01T04:35:55;-1.90;99.90
8340;DHT22;4207;49.314;7.162;2023-03-01T04:38:25;-1.80;99.90
8340;DHT22;4207;49.314;7.162;2023-03-01T04:40:54;-1.90;99.90
8340;DHT22;4207;49.314;7.162;2023-03-01T04:43:22;-1.90;99.90
8340;DHT22;4207;49.314;7.162;2023-03-01T04:45:52;-1.90;99.90
8340;DHT22;4207;49.314;7.162;2023-03-01T04:48:21;-1.90;99.90
8340;DHT22;4207;49.314;7.162;2023-03-01T04:50:49;-1.90;99.90
8340;DHT22;4207;49.314;7.162;2023-03-01T04:53:17;-1.90;99.90
8340;DHT22;4207;49.314;7.162;2023-03-01T04:55:45;-1.90;99.90
8340;DHT22;4207;49.314;7.162;2023-03-01T04:58:13;-1.90;99.90
8340;DHT22;4207;49.314;7.162;2023-03-01T05:00:42;-1.90;99.90
8340;DHT22;4207;49.314;7.162;2023-03-01T05:03:11;-1.90;99.90
8340;DHT22;4207;49.314;7.162;2023-03-01T05:05:46;-1.90;99.90
8340;DHT22;4207;49.314;7.162;2023-03-01T05:08:15;-1.90;99.90
8340;DHT22;4207;49.314;7.162;2023-03-01T05:10:47;-2.00;99.90
8340;DHT22;4207;49.314;7.162;2023-03-01T05:13:16;-2.00;99.90
8340;DHT22;4207;49.314;7.162;2023-03-01T05:15:48;-2.00;99.90
8340;DHT22;4207;49.314;7.162;2023-03-01T05:18:23;-2.00;99.90
8340;DHT22;4207;49.314;7.162;2023-03-01T05:20:52;-2.00;99.90
8340;DHT22;4207;49.314;7.162;2023-03-01T05:23:24;-2.10;99.90
8340;DHT22;4207;49.314;7.162;2023-03-01T05:25:52;-2.10;99.90
8340;DHT22;4207;49.314;7.162;2023-03-01T05:28:21;-2.10;99.90
8340;DHT22;4207;49.314;7.162;2023-03-01T05:30:49;-1.60;99.90
8340;DHT22;4207;49.314;7.162;2023-03-01T05:33:18;-2.10;99.90
8340;DHT22;4207;49.314;7.162;2023-03-01T05:35:50;-2.10;99.90
8340;DHT22;4207;49.314;7.162;2023-03-01T05:38:20;-2.00;99.90
8340;DHT22;4207;49.314;7.162;2023-03-01T05:40:49;-1.90;99.90
8340;DHT22;4207;49.314;7.162;2023-03-01T05:43:17;-1.80;99.90
8340;DHT22;4207;49.314;7.162;2023-03-01T05:45:45;-1.70;99.90
8340;DHT22;4207;49.314;7.162;2023-03-01T05:48:14;-1.60;99.90
8340;DHT22;4207;49.314;7.162;2023-03-01T05:50:43;-1.60;99.90
8340;DHT22;4207;49.314;7.162;2023-03-01T05:53:15;-1.50;99.90
8340;DHT22;4207;49.314;7.162;2023-03-01T05:55:44;-1.60;99.90
8340;DHT22;4207;49.314;7.162;2023-03-01T05:58:15;-1.60;99.90
8340;DHT22;4207;49.314;7.162;2023-03-01T06:00:45;-1.60;99.90
8340;DHT22;4207;49.314;7.162;2023-03-01T06:03:15;-1.60;99.90
8340;DHT22;4207;49.314;7.162;2023-03-01T06:05:44;-1.60;99.90
8340;DHT22;4207;49.314;7.162;2023-03-01T06:08:14;-1.60;99.90
8340;DHT22;4207;49.314;7.162;2023-03-01T06:10:42;-1.60;99.90
8340;DHT22;4207;49.314;7.162;2023-03-01T06:13:10;-1.60;99.90
8340;DHT22;4207;49.314;7.162;2023-03-01T06:15:38;-1.60;99.90
8340;DHT22;4207;49.314;7.162;2023-03-01T06:18:06;-1.60;99.90
8340;DHT22;4207;49.314;7.162;2023-03-01T06:20:34;-1.60;99.90
8340;DHT22;4207;49.314;7.162;2023-03-01T06:23:02;-1.60;99.90
8340;DHT22;4207;49.314;7.162;2023-03-01T06:25:32;-1.60;99.90
8340;DHT22;4207;49.314;7.162;2023-03-01T06:28:00;-1.60;99.90
8340;DHT22;4207;49.314;7.162;2023-03-01T06:30:28;-1.60;99.90
8340;DHT22;4207;49.314;7.162;2023-03-01T06:32:56;-1.60;99.90
8340;DHT22;4207;49.314;7.162;2023-03-01T06:35:28;-1.60;99.90
8340;DHT22;4207;49.314;7.162;2023-03-01T06:37:59;-1.50;99.90
8340;DHT22;4207;49.314;7.162;2023-03-01T06:40:27;-1.40;99.90
8340;DHT22;4207;49.314;7.162;2023-03-01T06:42:57;-1.40;99.90
8340;DHT22;4207;49.314;7.162;2023-03-01T06:45:25;-1.30;99.90
8340;DHT22;4207;49.314;7.162;2023-03-01T06:48:01;-1.20;99.90
8340;DHT22;4207;49.314;7.162;2023-03-01T06:50:29;-1.20;99.90
8340;DHT22;4207;49.314;7.162;2023-03-01T06:52:57;-1.10;99.90
8340;DHT22;4207;49.314;7.162;2023-03-01T06:55:26;-1.10;99.90
8340;DHT22;4207;49.314;7.162;2023-03-01T06:57:55;-1.00;99.90
8340;DHT22;4207;49.314;7.162;2023-03-01T07:00:26;-0.90;99.90
8340;DHT22;4207;49.314;7.162;2023-03-01T07:02:54;-0.80;99.90
8340;DHT22;4207;49.314;7.162;2023-03-01T07:05:22;-0.80;99.90
8340;DHT22;4207;49.314;7.162;2023-03-01T07:07:50;-0.70;99.90
8340;DHT22;4207;49.314;7.162;2023-03-01T07:10:18;-0.70;99.90
8340;DHT22;4207;49.314;7.162;2023-03-01T07:12:46;-0.60;99.90
8340;DHT22;4207;49.314;7.162;2023-03-01T07:15:14;-0.60;99.90
8340;DHT22;4207;49.314;7.162;2023-03-01T07:17:43;-0.50;99.90
8340;DHT22;4207;49.314;7.162;2023-03-01T07:20:14;-0.50;99.90
8340;DHT22;4207;49.314;7.162;2023-03-01T07:22:42;-0.50;99.90
8340;DHT22;4207;49.314;7.162;2023-03-01T07:25:10;-0.40;99.90
8340;DHT22;4207;49.314;7.162;2023-03-01T07:27:39;-0.40;99.90
8340;DHT22;4207;49.314;7.162;2023-03-01T07:30:08;-0.40;99.90
8340;DHT22;4207;49.314;7.162;2023-03-01T07:32:36;-0.30;99.90
8340;DHT22;4207;49.314;7.162;2023-03-01T07:35:06;-0.30;99.90
8340;DHT22;4207;49.314;7.162;2023-03-01T07:37:34;-0.30;99.90
8340;DHT22;4207;49.314;7.162;2023-03-01T07:40:03;-0.20;99.90
8340;DHT22;4207;49.314;7.162;2023-03-01T07:42:31;-0.20;99.90
8340;DHT22;4207;49.314;7.162;2023-03-01T07:44:59;-0.20;99.90
8340;DHT22;4207;49.314;7.162;2023-03-01T07:47:27;-0.10;99.90
8340;DHT22;4207;49.314;7.162;2023-03-01T07:49:55;-0.10;99.90
8340;DHT22;4207;49.314;7.162;2023-03-01T07:52:24;0.00;99.90
8340;DHT22;4207;49.314;7.162;2023-03-01T07:54:52;0.00;99.90
8340;DHT22;4207;49.314;7.162;2023-03-01T07:57:20;0.00;99.90
8340;DHT22;4207;49.314;7.162;2023-03-01T07:59:48;0.00;99.90
8340;DHT22;4207;49.314;7.162;2023-03-01T08:02:16;0.00;99.90
8340;DHT22;4207;49.314;7.162;2023-03-01T08:04:44;0.10;99.90
8340;DHT22;4207;49.314;7.162;2023-03-01T08:07:12;0.10;99.90
8340;DHT22;4207;49.314;7.162;2023-03-01T08:09:41;0.10;99.90
8340;DHT22;4207;49.314;7.162;2023-03-01T08:12:09;0.20;99.90
8340;DHT22;4207;49.314;7.162;2023-03-01T08:14:37;0.20;99.90
8340;DHT22;4207;49.314;7.162;2023-03-01T08:17:05;0.20;99.90
8340;DHT22;4207;49.314;7.162;2023-03-01T08:19:34;0.30;99.90
8340;DHT22;4207;49.314;7.162;2023-03-01T08:22:02;0.30;99.90
8340;DHT22;4207;49.314;7.162;2023-03-01T08:24:30;0.40;99.90
8340;DHT22;4207;49.314;7.162;2023-03-01T08:26:59;0.40;99.90
8340;DHT22;4207;49.314;7.162;2023-03-01T08:29:30;0.50;99.90
8340;DHT22;4207;49.314;7.162;2023-03-01T08:31:58;0.50;99.90
8340;DHT22;4207;49.314;7.162;2023-03-01T08:34:27;0.60;99.90
8340;DHT22;4207;49.314;7.162;2023-03-01T08:36:55;0.60;99.90
8340;DHT22;4207;49.314;7.162;2023-03-01T08:39:23;0.60;99.90
8340;DHT22;4207;49.314;7.162;2023-03-01T08:41:51;0.70;99.90
8340;DHT22;4207;49.314;7.162;2023-03-01T08:44:20;0.70;99.90
8340;DHT22;4207;49.314;7.162;2023-03-01T08:46:49;0.80;99.90
8340;DHT22;4207;49.314;7.162;2023-03-01T08:49:19;0.80;99.90
8340;DHT22;4207;49.314;7.162;2023-03-01T08:51:48;0.90;99.90
8340;DHT22;4207;49.314;7.162;2023-03-01T08:54:17;1.00;99.90
8340;DHT22;4207;49.314;7.162;2023-03-01T08:56:46;1.00;99.90
8340;DHT22;4207;49.314;7.162;2023-03-01T08:59:15;1.10;99.90
8340;DHT22;4207;49.314;7.162;2023-03-01T09:01:45;1.10;99.90
8340;DHT22;4207;49.314;7.162;2023-03-01T09:04:14;1.20;99.90
8340;DHT22;4207;49.314;7.162;2023-03-01T09:06:43;1.10;99.90
8340;DHT22;4207;49.314;7.162;2023-03-01T09:09:13;1.20;99.90
8340;DHT22;4207;49.314;7.162;2023-03-01T09:11:43;1.30;99.90
8340;DHT22;4207;49.314;7.162;2023-03-01T09:14:13;1.30;99.90
8340;DHT22;4207;49.314;7.162;2023-03-01T09:16:41;1.40;99.90
8340;DHT22;4207;49.314;7.162;2023-03-01T09:19:11;1.40;99.90
8340;DHT22;4207;49.314;7.162;2023-03-01T09:21:39;1.40;99.90
8340;DHT22;4207;49.314;7.162;2023-03-01T09:24:13;1.50;99.90
8340;DHT22;4207;49.314;7.162;2023-03-01T09:26:41;1.50;99.90
8340;DHT22;4207;49.314;7.162;2023-03-01T09:29:16;1.60;99.90
8340;DHT22;4207;49.314;7.162;2023-03-01T09:31:44;1.70;99.90
8340;DHT22;4207;49.314;7.162;2023-03-01T09:34:14;1.80;99.90
8340;DHT22;4207;49.314;7.162;2023-03-01T09:36:42;1.90;99.90
8340;DHT22;4207;49.314;7.162;2023-03-01T09:39:11;2.00;99.90
8340;DHT22;4207;49.314;7.162;2023-03-01T09:41:46;2.00;99.90
8340;DHT22;4207;49.314;7.162;2023-03-01T09:44:35;2.00;99.90
8340;DHT22;4207;49.314;7.162;2023-03-01T09:47:05;2.10;99.90
8340;DHT22;4207;49.314;7.162;2023-03-01T09:49:41;2.20;99.90
8340;DHT22;4207;49.314;7.162;2023-03-01T09:52:23;2.20;99.90
8340;DHT22;4207;49.314;7.162;2023-03-01T09:54:55;2.30;99.90
8340;DHT22;4207;49.314;7.162;2023-03-01T09:57:30;2.30;99.90
8340;DHT22;4207;49.314;7.162;2023-03-01T10:00:11;2.40;99.90
8340;DHT22;4207;49.314;7.162;2023-03-01T10:02:45;2.50;99.90
8340;DHT22;4207;49.314;7.162;2023-03-01T10:05:37;2.60;99.90
8340;DHT22;4207;49.314;7.162;2023-03-01T10:08:24;2.60;99.90
8340;DHT22;4207;49.314;7.162;2023-03-01T10:10:53;2.60;99.90
8340;DHT22;4207;49.314;7.162;2023-03-01T10:13:25;2.60;99.90
8340;DHT22;4207;49.314;7.162;2023-03-01T10:15:57;2.70;99.90
8340;DHT22;4207;49.314;7.162;2023-03-01T10:18:30;2.80;99.90
8340;DHT22;4207;49.314;7.162;2023-03-01T10:21:02;2.80;99.90
8340;DHT22;4207;49.314;7.162;2023-03-01T10:23:34;2.90;99.90
8340;DHT22;4207;49.314;7.162;2023-03-01T10:26:20;3.00;99.90
8340;DHT22;4207;49.314;7.162;2023-03-01T10:28:58;3.00;99.90
8340;DHT22;4207;49.314;7.162;2023-03-01T10:31:38;3.10;99.90
8340;DHT22;4207;49.314;7.162;2023-03-01T10:34:12;3.20;99.90
8340;DHT22;4207;49.314;7.162;2023-03-01T10:36:42;3.30;99.90
8340;DHT22;4207;49.314;7.162;2023-03-01T10:39:14;3.40;99.90
8340;DHT22;4207;49.314;7.162;2023-03-01T10:41:55;3.50;99.90
8340;DHT22;4207;49.314;7.162;2023-03-01T10:44:37;3.60;99.90
8340;DHT22;4207;49.314;7.162;2023-03-01T10:47:13;3.70;99.90
8340;DHT22;4207;49.314;7.162;2023-03-01T10:49:56;3.80;99.90
8340;DHT22;4207;49.314;7.162;2023-03-01T10:52:29;3.80;99.90
8340;DHT22;4207;49.314;7.162;2023-03-01T10:54:59;3.90;99.90
8340;DHT22;4207;49.314;7.162;2023-03-01T10:57:34;3.90;99.90
8340;DHT22;4207;49.314;7.162;2023-03-01T11:03:12;3.90;99.90
8340;DHT22;4207;49.314;7.162;2023-03-01T11:05:58;4.00;99.90
8340;DHT22;4207;49.314;7.162;2023-03-01T11:08:36;4.00;99.90
8340;DHT22;4207;49.314;7.162;2023-03-01T11:11:13;4.00;99.90
8340;DHT22;4207;49.314;7.162;2023-03-01T11:13:51;4.10;99.80
8340;DHT22;4207;49.314;7.162;2023-03-01T11:16:31;4.10;99.80
8340;DHT22;4207;49.314;7.162;2023-03-01T11:19:04;4.20;99.50
8340;DHT22;4207;49.314;7.162;2023-03-01T11:21:33;4.20;99.10
8340;DHT22;4207;49.314;7.162;2023-03-01T11:24:06;4.20;99.00
8340;DHT22;4207;49.314;7.162;2023-03-01T11:26:39;4.20;99.00
8340;DHT22;4207;49.314;7.162;2023-03-01T11:29:15;4.20;99.40
8340;DHT22;4207;49.314;7.162;2023-03-01T11:31:46;4.20;99.30
8340;DHT22;4207;49.314;7.162;2023-03-01T11:34:33;4.20;99.30
8340;DHT22;4207;49.314;7.162;2023-03-01T11:37:12;4.40;99.30
8340;DHT22;4207;49.314;7.162;2023-03-01T11:39:49;4.40;99.30
8340;DHT22;4207;49.314;7.162;2023-03-01T11:42:24;4.60;99.20
8340;DHT22;4207;49.314;7.162;2023-03-01T11:44:55;4.50;99.20
8340;DHT22;4207;49.314;7.162;2023-03-01T11:47:38;4.60;99.10
8340;DHT22;4207;49.314;7.162;2023-03-01T11:50:19;4.70;99.00
8340;DHT22;4207;49.314;7.162;2023-03-01T11:53:01;4.70;99.20
8340;DHT22;4207;49.314;7.162;2023-03-01T11:55:50;4.80;98.80
8340;DHT22;4207;49.314;7.162;2023-03-01T11:58:40;4.80;97.70
8340;DHT22;4207;49.314;7.162;2023-03-01T12:01:27;4.80;98.30
8340;DHT22;4207;49.314;7.162;2023-03-01T12:04:21;4.90;98.40
8340;DHT22;4207;49.314;7.162;2023-03-01T12:06:56;4.90;98.20
8340;DHT22;4207;49.314;7.162;2023-03-01T12:09:37;5.00;97.70
8340;DHT22;4207;49.314;7.162;2023-03-01T12:12:29;5.00;97.70
8340;DHT22;4207;49.314;7.162;2023-03-01T12:18:23;5.00;97.80
8340;DHT22;4207;49.314;7.162;2023-03-01T12:21:01;5.00;97.50
8340;DHT22;4207;49.314;7.162;2023-03-01T12:23:50;5.10;97.50
8340;DHT22;4207;49.314;7.162;2023-03-01T12:26:27;5.10;97.10
8340;DHT22;4207;49.314;7.162;2023-03-01T12:29:18;5.20;97.60
8340;DHT22;4207;49.314;7.162;2023-03-01T12:32:12;5.30;97.50
8340;DHT22;4207;49.314;7.162;2023-03-01T12:35:00;5.30;96.70
8340;DHT22;4207;49.314;7.162;2023-03-01T12:37:36;5.30;96.90
8340;DHT22;4207;49.314;7.162;2023-03-01T12:40:33;5.30;96.70
8340;DHT22;4207;49.314;7.162;2023-03-01T12:43:26;5.30;96.90
8340;DHT22;4207;49.314;7.162;2023-03-01T12:46:10;5.40;97.10
8340;DHT22;4207;49.314;7.162;2023-03-01T12:48:46;5.40;96.70
8340;DHT22;4207;49.314;7.162;2023-03-01T12:51:19;5.40;96.40
8340;DHT22;4207;49.314;7.162;2023-03-01T12:53:52;5.30;96.80
8340;DHT22;4207;49.314;7.162;2023-03-01T12:56:23;5.40;97.00
8340;DHT22;4207;49.314;7.162;2023-03-01T12:59:00;5.50;96.80
8340;DHT22;4207;49.314;7.162;2023-03-01T13:01:41;5.50;96.80
8340;DHT22;4207;49.314;7.162;2023-03-01T13:04:22;5.50;96.60
8340;DHT22;4207;49.314;7.162;2023-03-01T13:07:03;5.60;96.00
8340;DHT22;4207;49.314;7.162;2023-03-01T13:09:38;5.50;96.00
8340;DHT22;4207;49.314;7.162;2023-03-01T13:12:53;5.60;97.10
8340;DHT22;4207;49.314;7.162;2023-03-01T13:15:32;5.60;97.00
8340;DHT22;4207;49.314;7.162;2023-03-01T13:18:11;5.70;96.70
8340;DHT22;4207;49.314;7.162;2023-03-01T13:20:54;5.80;96.40
8340;DHT22;4207;49.314;7.162;2023-03-01T13:23:26;5.70;96.20
8340;DHT22;4207;49.314;7.162;2023-03-01T13:26:03;5.80;96.50
8340;DHT22;4207;49.314;7.162;2023-03-01T13:28:53;5.70;95.60
8340;DHT22;4207;49.314;7.162;2023-03-01T13:31:57;5.60;95.70
8340;DHT22;4207;49.314;7.162;2023-03-01T13:34:57;5.60;95.80
8340;DHT22;4207;49.314;7.162;2023-03-01T13:37:31;5.50;96.00
8340;DHT22;4207;49.314;7.162;2023-03-01T13:40:03;5.60;96.30
8340;DHT22;4207;49.314;7.162;2023-03-01T13:42:41;5.60;95.90
8340;DHT22;4207;49.314;7.162;2023-03-01T13:45:21;5.60;96.00
8340;DHT22;4207;49.314;7.162;2023-03-01T13:47:58;5.70;96.20
8340;DHT22;4207;49.314;7.162;2023-03-01T13:50:33;5.70;95.90
8340;DHT22;4207;49.314;7.162;2023-03-01T13:53:05;5.70;95.80
8340;DHT22;4207;49.314;7.162;2023-03-01T13:55:40;5.70;96.00
8340;DHT22;4207;49.314;7.162;2023-03-01T13:58:20;5.70;96.10
8340;DHT22;4207;49.314;7.162;2023-03-01T14:00:57;5.70;95.90
8340;DHT22;4207;49.314;7.162;2023-03-01T14:03:29;5.70;96.00
8340;DHT22;4207;49.314;7.162;2023-03-01T14:06:02;5.70;95.90
8340;DHT22;4207;49.314;7.162;2023-03-01T14:08:42;5.70;95.70
8340;DHT22;4207;49.314;7.162;2023-03-01T14:11:31;5.70;95.40
8340;DHT22;4207;49.314;7.162;2023-03-01T14:20:20;5.70;95.60
8340;DHT22;4207;49.314;7.162;2023-03-01T14:22:52;5.80;96.10
8340;DHT22;4207;49.314;7.162;2023-03-01T14:25:23;5.80;95.90
8340;DHT22;4207;49.314;7.162;2023-03-01T14:27:58;5.80;95.50
8340;DHT22;4207;49.314;7.162;2023-03-01T14:30:30;5.80;95.80
8340;DHT22;4207;49.314;7.162;2023-03-01T14:33:01;5.80;95.40
8340;DHT22;4207;49.314;7.162;2023-03-01T14:35:31;5.80;95.60
8340;DHT22;4207;49.314;7.162;2023-03-01T14:38:01;5.80;95.80
8340;DHT22;4207;49.314;7.162;2023-03-01T14:40:32;5.80;95.80
8340;DHT22;4207;49.314;7.162;2023-03-01T14:43:01;5.80;95.30
8340;DHT22;4207;49.314;7.162;2023-03-01T14:45:30;5.80;95.30
8340;DHT22;4207;49.314;7.162;2023-03-01T14:48:00;5.90;95.60
8340;DHT22;4207;49.314;7.162;2023-03-01T14:50:30;5.90;95.50
8340;DHT22;4207;49.314;7.162;2023-03-01T14:53:02;5.90;95.10
8340;DHT22;4207;49.314;7.162;2023-03-01T14:55:35;6.00;95.30
8340;DHT22;4207;49.314;7.162;2023-03-01T14:58:08;6.00;95.30
8340;DHT22;4207;49.314;7.162;2023-03-01T15:00:37;6.00;95.10
8340;DHT22;4207;49.314;7.162;2023-03-01T15:03:08;5.90;94.70
8340;DHT22;4207;49.314;7.162;2023-03-01T15:05:41;5.90;94.70
8340;DHT22;4207;49.314;7.162;2023-03-01T15:08:18;6.00;95.10
8340;DHT22;4207;49.314;7.162;2023-03-01T15:10:57;6.00;94.70
8340;DHT22;4207;49.314;7.162;2023-03-01T15:13:30;6.00;94.40
8340;DHT22;4207;49.314;7.162;2023-03-01T15:16:05;6.00;95.00
8340;DHT22;4207;49.314;7.162;2023-03-01T15:18:34;5.90;94.70
8340;DHT22;4207;49.314;7.162;2023-03-01T15:21:09;6.00;95.10
8340;DHT22;4207;49.314;7.162;2023-03-01T15:23:38;6.00;94.60
8340;DHT22;4207;49.314;7.162;2023-03-01T15:26:22;6.00;94.20
8340;DHT22;4207;49.314;7.162;2023-03-01T15:28:52;6.00;94.70
8340;DHT22;4207;49.314;7.162;2023-03-01T15:31:27;6.00;94.70
8340;DHT22;4207;49.314;7.162;2023-03-01T15:34:09;6.10;94.30
8340;DHT22;4207;49.314;7.162;2023-03-01T15:36:41;6.00;94.20
8340;DHT22;4207;49.314;7.162;2023-03-01T15:39:39;6.00;93.90
8340;DHT22;4207;49.314;7.162;2023-03-01T15:42:11;6.00;94.00
8340;DHT22;4207;49.314;7.162;2023-03-01T15:44:41;6.00;94.00
8340;DHT22;4207;49.314;7.162;2023-03-01T15:47:32;5.90;93.50
8340;DHT22;4207;49.314;7.162;2023-03-01T15:50:01;5.90;93.50
8340;DHT22;4207;49.314;7.162;2023-03-01T15:52:33;6.00;93.70
8340;DHT22;4207;49.314;7.162;2023-03-01T15:55:15;5.90;93.60
8340;DHT22;4207;49.314;7.162;2023-03-01T15:57:44;5.90;93.50
8340;DHT22;4207;49.314;7.162;2023-03-01T16:00:13;5.90;93.60
8340;DHT22;4207;49.314;7.162;2023-03-01T16:02:43;5.90;93.90
8340;DHT22;4207;49.314;7.162;2023-03-01T16:05:19;5.90;93.70
8340;DHT22;4207;49.314;7.162;2023-03-01T16:07:47;5.90;93.30
8340;DHT22;4207;49.314;7.162;2023-03-01T16:10:18;5.90;93.00
8340;DHT22;4207;49.314;7.162;2023-03-01T16:12:46;5.90;93.20
8340;DHT22;4207;49.314;7.162;2023-03-01T16:15:18;5.90;93.10
8340;DHT22;4207;49.314;7.162;2023-03-01T16:17:46;5.90;93.20
8340;DHT22;4207;49.314;7.162;2023-03-01T16:20:20;5.80;93.20
8340;DHT22;4207;49.314;7.162;2023-03-01T16:22:57;5.80;93.10
8340;DHT22;4207;49.314;7.162;2023-03-01T16:25:29;5.80;92.80
8340;DHT22;4207;49.314;7.162;2023-03-01T16:27:57;5.80;92.60
8340;DHT22;4207;49.314;7.162;2023-03-01T16:30:27;5.80;92.20
8340;DHT22;4207;49.314;7.162;2023-03-01T16:32:55;5.80;91.90
8340;DHT22;4207;49.314;7.162;2023-03-01T16:35:23;5.80;91.80
8340;DHT22;4207;49.314;7.162;2023-03-01T16:37:51;5.80;91.70
8340;DHT22;4207;49.314;7.162;2023-03-01T16:40:22;5.70;91.60
8340;DHT22;4207;49.314;7.162;2023-03-01T16:42:54;5.70;91.80
8340;DHT22;4207;49.314;7.162;2023-03-01T16:45:26;5.70;91.60
8340;DHT22;4207;49.314;7.162;2023-03-01T16:47:54;5.60;91.70
8340;DHT22;4207;49.314;7.162;2023-03-01T16:50:22;5.70;91.60
8340;DHT22;4207;49.314;7.162;2023-03-01T16:52:50;5.60;91.70
8340;DHT22;4207;49.314;7.162;2023-03-01T16:55:18;5.60;91.80
8340;DHT22;4207;49.314;7.162;2023-03-01T16:57:46;5.50;91.90